sensor_id;sensor_type;location;lat;lon;timestamp;temperature;humidity
52471;DHT22;38382;53.160;7.026;2023-08-06T00:00:24;13.90;99.90
52471;DHT22;38382;53.160;7.026;2023-08-06T00:02:50;13.90;99.90
52471;DHT22;38382;53.160;7.026;2023-08-06T00:05:16;13.90;99.90
52471;DHT22;38382;53.160;7.026;2023-08-06T00:07:50;13.90;99.90
52471;DHT22;38382;53.160;7.026;2023-08-06T00:10:16;13.80;99.90
52471;DHT22;38382;53.160;7.026;2023-08-06T00:12:45;13.80;99.90
52471;DHT22;38382;53.160;7.026;2023-08-06T00:15:11;13.90;99.90
52471;DHT22;38382;53.160;7.026;2023-08-06T00:17:37;13.80;99.90
52471;DHT22;38382;53.160;7.026;2023-08-06T00:20:04;13.80;99.90
52471;DHT22;38382;53.160;7.026;2023-08-06T00:22:40;13.80;99.90
52471;DHT22;38382;53.160;7.026;2023-08-06T00:25:06;13.80;99.90
52471;DHT22;38382;53.160;7.026;2023-08-06T00:27:32;13.80;99.90
52471;DHT22;38382;53.160;7.026;2023-08-06T00:29:58;13.80;99.90
52471;DHT22;38382;53.160;7.026;2023-08-06T00:32:24;13.80;99.90
52471;DHT22;38382;53.160;7.026;2023-08-06T00:34:50;13.80;99.90
52471;DHT22;38382;53.160;7.026;2023-08-06T00:37:16;13.80;99.90
52471;DHT22;38382;53.160;7.026;2023-08-06T00:39:42;13.80;99.90
52471;DHT22;38382;53.160;7.026;2023-08-06T00:42:09;13.90;99.90
52471;DHT22;38382;53.160;7.026;2023-08-06T00:44:35;13.90;99.90
52471;DHT22;38382;53.160;7.026;2023-08-06T00:47:01;13.80;99.90
52471;DHT22;38382;53.160;7.026;2023-08-06T00:49:27;13.90;99.90
52471;DHT22;38382;53.160;7.026;2023-08-06T00:51:53;13.90;99.90
52471;DHT22;38382;53.160;7.026;2023-08-06T00:54:19;13.90;99.90
52471;DHT22;38382;53.160;7.026;2023-08-06T00:56:45;13.90;99.90
52471;DHT22;38382;53.160;7.026;2023-08-06T00:59:12;13.90;99.90
52471;DHT22;38382;53.160;7.026;2023-08-06T01:01:38;13.90;99.90
52471;DHT22;38382;53.160;7.026;2023-08-06T01:04:04;13.90;99.90
52471;DHT22;38382;53.160;7.026;2023-08-06T01:06:57;13.90;99.90
52471;DHT22;38382;53.160;7.026;2023-08-06T01:15:25;13.90;99.90
52471;DHT22;38382;53.160;7.026;2023-08-06T01:17:53;13.90;99.90
52471;DHT22;38382;53.160;7.026;2023-08-06T01:20:19;13.90;99.90
52471;DHT22;38382;53.160;7.026;2023-08-06T01:22:45;13.90;99.90
52471;DHT22;38382;53.160;7.026;2023-08-06T01:25:14;13.80;99.90
52471;DHT22;38382;53.160;7.026;2023-08-06T01:27:47;13.90;99.90
52471;DHT22;38382;53.160;7.026;2023-08-06T01:30:29;14.00;99.90
52471;DHT22;38382;53.160;7.026;2023-08-06T01:33:00;13.90;99.90
52471;DHT22;38382;53.160;7.026;2023-08-06T01:35:29;14.00;99.90
52471;DHT22;38382;53.160;7.026;2023-08-06T01:37:55;14.00;99.90
52471;DHT22;38382;53.160;7.026;2023-08-06T01:40:21;14.00;99.90
52471;DHT22;38382;53.160;7.026;2023-08-06T01:42:47;13.90;99.90
52471;DHT22;38382;53.160;7.026;2023-08-06T01:45:13;13.90;99.90
52471;DHT22;38382;53.160;7.026;2023-08-06T01:47:39;13.90;99.90
52471;DHT22;38382;53.160;7.026;2023-08-06T01:50:05;13.90;99.90
52471;DHT22;38382;53.160;7.026;2023-08-06T01:52:31;14.00;99.90
52471;DHT22;38382;53.160;7.026;2023-08-06T01:54:57;13.90;99.90
52471;DHT22;38382;53.160;7.026;2023-08-06T01:57:22;14.00;99.90
52471;DHT22;38382;53.160;7.026;2023-08-06T01:59:48;14.00;99.90
52471;DHT22;38382;53.160;7.026;2023-08-06T02:02:14;14.00;99.90
52471;DHT22;38382;53.160;7.026;2023-08-06T02:04:39;13.90;99.90
52471;DHT22;38382;53.160;7.026;2023-08-06T02:07:05;14.00;99.90
52471;DHT22;38382;53.160;7.026;2023-08-06T02:09:31;14.00;99.90
52471;DHT22;38382;53.160;7.026;2023-08-06T02:11:57;14.00;99.90
52471;DHT22;38382;53.160;7.026;2023-08-06T02:14:22;14.00;99.90
52471;DHT22;38382;53.160;7.026;2023-08-06T02:16:48;13.90;99.90
52471;DHT22;38382;53.160;7.026;2023-08-06T02:19:15;14.00;99.90
52471;DHT22;38382;53.160;7.026;2023-08-06T02:21:40;13.90;99.90
52471;DHT22;38382;53.160;7.026;2023-08-06T02:24:06;14.00;99.90
52471;DHT22;38382;53.160;7.026;2023-08-06T02:26:32;14.00;99.90
52471;DHT22;38382;53.160;7.026;2023-08-06T02:28:57;14.00;99.90
52471;DHT22;38382;53.160;7.026;2023-08-06T02:31:23;14.00;99.90
52471;DHT22;38382;53.160;7.026;2023-08-06T02:33:49;14.00;99.90
52471;DHT22;38382;53.160;7.026;2023-08-06T02:36:14;14.00;99.90
52471;DHT22;38382;53.160;7.026;2023-08-06T02:38:40;14.00;99.90
52471;DHT22;38382;53.160;7.026;2023-08-06T02:41:06;14.00;99.90
52471;DHT22;38382;53.160;7.026;2023-08-06T02:43:31;14.00;99.90
52471;DHT22;38382;53.160;7.026;2023-08-06T02:46:00;14.00;99.90
52471;DHT22;38382;53.160;7.026;2023-08-06T02:48:26;14.00;99.90
52471;DHT22;38382;53.160;7.026;2023-08-06T02:50:52;14.00;99.90
52471;DHT22;38382;53.160;7.026;2023-08-06T02:53:18;14.00;99.90
52471;DHT22;38382;53.160;7.026;2023-08-06T02:55:47;14.00;99.90
52471;DHT22;38382;53.160;7.026;2023-08-06T02:58:14;14.00;99.90
52471;DHT22;38382;53.160;7.026;2023-08-06T03:00:40;14.00;99.90
52471;DHT22;38382;53.160;7.026;2023-08-06T03:03:06;14.00;99.90
52471;DHT22;38382;53.160;7.026;2023-08-06T03:05:32;14.00;99.90
52471;DHT22;38382;53.160;7.026;2023-08-06T03:07:58;13.90;99.90
52471;DHT22;38382;53.160;7.026;2023-08-06T03:10:23;13.90;99.90
52471;DHT22;38382;53.160;7.026;2023-08-06T03:12:49;13.90;99.90
52471;DHT22;38382;53.160;7.026;2023-08-06T03:15:15;13.90;99.90
52471;DHT22;38382;53.160;7.026;2023-08-06T03:17:40;13.90;99.90
52471;DHT22;38382;53.160;7.026;2023-08-06T03:20:06;13.90;99.90
52471;DHT22;38382;53.160;7.026;2023-08-06T03:22:32;13.90;99.90
52471;DHT22;38382;53.160;7.026;2023-08-06T03:24:58;13.90;99.90
52471;DHT22;38382;53.160;7.026;2023-08-06T03:27:23;13.90;99.90
52471;DHT22;38382;53.160;7.026;2023-08-06T03:29:49;13.90;99.90
52471;DHT22;38382;53.160;7.026;2023-08-06T03:32:15;13.90;99.90
52471;DHT22;38382;53.160;7.026;2023-08-06T03:34:41;13.90;99.90
52471;DHT22;38382;53.160;7.026;2023-08-06T03:37:07;13.90;99.90
52471;DHT22;38382;53.160;7.026;2023-08-06T03:39:33;13.90;99.90
52471;DHT22;38382;53.160;7.026;2023-08-06T03:41:58;13.90;99.90
52471;DHT22;38382;53.160;7.026;2023-08-06T03:44:24;13.90;99.90
52471;DHT22;38382;53.160;7.026;2023-08-06T03:46:50;13.90;99.90
52471;DHT22;38382;53.160;7.026;2023-08-06T03:49:15;13.90;99.90
52471;DHT22;38382;53.160;7.026;2023-08-06T03:51:41;13.80;99.90
52471;DHT22;38382;53.160;7.026;2023-08-06T03:54:07;13.90;99.90
52471;DHT22;38382;53.160;7.026;2023-08-06T03:56:32;13.80;99.90
52471;DHT22;38382;53.160;7.026;2023-08-06T03:58:58;13.80;99.90
52471;DHT22;38382;53.160;7.026;2023-08-06T04:01:24;13.80;99.90
52471;DHT22;38382;53.160;7.026;2023-08-06T04:03:49;13.80;99.90
52471;DHT22;38382;53.160;7.026;2023-08-06T04:06:15;13.90;99.90
52471;DHT22;38382;53.160;7.026;2023-08-06T04:08:41;13.90;99.90
52471;DHT22;38382;53.160;7.026;2023-08-06T04:11:06;13.90;99.90
52471;DHT22;38382;53.160;7.026;2023-08-06T04:13:32;13.80;99.90
52471;DHT22;38382;53.160;7.026;2023-08-06T04:16:02;13.80;99.90
52471;DHT22;38382;53.160;7.026;2023-08-06T04:18:28;13.90;99.90
52471;DHT22;38382;53.160;7.026;2023-08-06T04:20:53;13.80;99.90
52471;DHT22;38382;53.160;7.026;2023-08-06T04:23:20;13.90;99.90
52471;DHT22;38382;53.160;7.026;2023-08-06T04:25:46;13.90;99.90
52471;DHT22;38382;53.160;7.026;2023-08-06T04:28:12;13.90;99.90
52471;DHT22;38382;53.160;7.026;2023-08-06T04:30:38;13.90;99.90
52471;DHT22;38382;53.160;7.026;2023-08-06T04:33:04;13.90;99.90
52471;DHT22;38382;53.160;7.026;2023-08-06T04:35:29;13.90;99.90
52471;DHT22;38382;53.160;7.026;2023-08-06T04:37:55;13.90;99.90
52471;DHT22;38382;53.160;7.026;2023-08-06T04:40:21;13.90;99.90
52471;DHT22;38382;53.160;7.026;2023-08-06T04:42:46;13.90;99.90
52471;DHT22;38382;53.160;7.026;2023-08-06T04:45:12;14.00;99.90
52471;DHT22;38382;53.160;7.026;2023-08-06T04:47:38;13.90;99.90
52471;DHT22;38382;53.160;7.026;2023-08-06T04:50:04;14.00;99.90
52471;DHT22;38382;53.160;7.026;2023-08-06T04:52:30;14.00;99.90
52471;DHT22;38382;53.160;7.026;2023-08-06T04:54:58;14.00;99.90
52471;DHT22;38382;53.160;7.026;2023-08-06T04:57:23;14.10;99.90
52471;DHT22;38382;53.160;7.026;2023-08-06T04:59:49;14.10;99.90
52471;DHT22;38382;53.160;7.026;2023-08-06T05:02:15;14.20;99.90
52471;DHT22;38382;53.160;7.026;2023-08-06T05:04:41;14.10;99.90
52471;DHT22;38382;53.160;7.026;2023-08-06T05:07:07;14.20;99.90
52471;DHT22;38382;53.160;7.026;2023-08-06T05:09:33;14.20;99.90
52471;DHT22;38382;53.160;7.026;2023-08-06T05:12:01;14.20;99.90
52471;DHT22;38382;53.160;7.026;2023-08-06T05:14:27;14.20;99.90
52471;DHT22;38382;53.160;7.026;2023-08-06T05:16:52;13.50;99.90
52471;DHT22;38382;53.160;7.026;2023-08-06T05:19:18;14.30;99.90
52471;DHT22;38382;53.160;7.026;2023-08-06T05:21:44;14.30;99.90
52471;DHT22;38382;53.160;7.026;2023-08-06T05:24:09;14.40;99.90
52471;DHT22;38382;53.160;7.026;2023-08-06T05:26:37;14.40;99.90
52471;DHT22;38382;53.160;7.026;2023-08-06T05:29:03;14.40;99.90
52471;DHT22;38382;53.160;7.026;2023-08-06T05:31:29;14.50;99.90
52471;DHT22;38382;53.160;7.026;2023-08-06T05:33:55;14.50;99.90
52471;DHT22;38382;53.160;7.026;2023-08-06T05:36:20;14.60;99.90
52471;DHT22;38382;53.160;7.026;2023-08-06T05:38:47;14.60;99.90
52471;DHT22;38382;53.160;7.026;2023-08-06T05:41:13;14.60;99.90
52471;DHT22;38382;53.160;7.026;2023-08-06T05:43:38;14.70;99.90
52471;DHT22;38382;53.160;7.026;2023-08-06T05:46:04;14.80;99.90
52471;DHT22;38382;53.160;7.026;2023-08-06T05:48:30;14.80;99.90
52471;DHT22;38382;53.160;7.026;2023-08-06T05:50:57;14.90;99.90
52471;DHT22;38382;53.160;7.026;2023-08-06T05:53:24;14.90;99.90
52471;DHT22;38382;53.160;7.026;2023-08-06T05:55:50;15.00;99.90
52471;DHT22;38382;53.160;7.026;2023-08-06T05:58:16;15.10;99.90
52471;DHT22;38382;53.160;7.026;2023-08-06T06:00:42;15.20;99.90
52471;DHT22;38382;53.160;7.026;2023-08-06T06:03:07;15.20;99.90
52471;DHT22;38382;53.160;7.026;2023-08-06T06:05:33;15.20;99.90
52471;DHT22;38382;53.160;7.026;2023-08-06T06:07:59;15.20;99.90
52471;DHT22;38382;53.160;7.026;2023-08-06T06:10:24;15.20;99.90
52471;DHT22;38382;53.160;7.026;2023-08-06T06:12:50;15.30;99.90
52471;DHT22;38382;53.160;7.026;2023-08-06T06:15:16;15.30;99.90
52471;DHT22;38382;53.160;7.026;2023-08-06T06:17:47;15.70;99.90
52471;DHT22;38382;53.160;7.026;2023-08-06T06:20:16;15.50;99.90
52471;DHT22;38382;53.160;7.026;2023-08-06T06:22:41;15.50;99.90
52471;DHT22;38382;53.160;7.026;2023-08-06T06:25:07;15.50;99.90
52471;DHT22;38382;53.160;7.026;2023-08-06T06:27:36;14.70;99.90
52471;DHT22;38382;53.160;7.026;2023-08-06T06:30:02;16.60;99.90
52471;DHT22;38382;53.160;7.026;2023-08-06T06:32:32;15.60;99.90
52471;DHT22;38382;53.160;7.026;2023-08-06T06:34:58;15.70;99.90
52471;DHT22;38382;53.160;7.026;2023-08-06T06:37:24;15.70;99.90
52471;DHT22;38382;53.160;7.026;2023-08-06T06:39:50;15.80;99.90
52471;DHT22;38382;53.160;7.026;2023-08-06T06:42:16;15.90;99.90
52471;DHT22;38382;53.160;7.026;2023-08-06T06:44:42;15.90;99.90
52471;DHT22;38382;53.160;7.026;2023-08-06T06:47:07;16.00;99.90
52471;DHT22;38382;53.160;7.026;2023-08-06T06:49:36;16.10;99.90
52471;DHT22;38382;53.160;7.026;2023-08-06T06:52:02;16.10;99.90
52471;DHT22;38382;53.160;7.026;2023-08-06T06:54:28;16.20;99.90
52471;DHT22;38382;53.160;7.026;2023-08-06T06:56:57;16.20;99.90
52471;DHT22;38382;53.160;7.026;2023-08-06T06:59:22;16.30;99.90
52471;DHT22;38382;53.160;7.026;2023-08-06T07:01:48;16.30;99.90
52471;DHT22;38382;53.160;7.026;2023-08-06T07:04:14;16.40;99.90
52471;DHT22;38382;53.160;7.026;2023-08-06T07:06:43;16.50;99.90
52471;DHT22;38382;53.160;7.026;2023-08-06T07:09:09;16.60;99.90
52471;DHT22;38382;53.160;7.026;2023-08-06T07:11:34;16.70;99.90
52471;DHT22;38382;53.160;7.026;2023-08-06T07:14:00;16.80;99.90
52471;DHT22;38382;53.160;7.026;2023-08-06T07:16:26;16.90;99.90
52471;DHT22;38382;53.160;7.026;2023-08-06T07:18:55;17.00;99.90
52471;DHT22;38382;53.160;7.026;2023-08-06T07:21:21;17.20;99.90
52471;DHT22;38382;53.160;7.026;2023-08-06T07:23:47;17.20;99.90
52471;DHT22;38382;53.160;7.026;2023-08-06T07:26:17;17.50;99.90
52471;DHT22;38382;53.160;7.026;2023-08-06T07:28:43;17.40;99.90
52471;DHT22;38382;53.160;7.026;2023-08-06T07:31:16;17.60;99.90
52471;DHT22;38382;53.160;7.026;2023-08-06T07:33:41;17.70;99.90
52471;DHT22;38382;53.160;7.026;2023-08-06T07:36:08;17.50;99.90
52471;DHT22;38382;53.160;7.026;2023-08-06T07:38:35;17.90;99.90
52471;DHT22;38382;53.160;7.026;2023-08-06T07:41:03;18.00;99.90
52471;DHT22;38382;53.160;7.026;2023-08-06T07:43:29;18.30;99.90
52471;DHT22;38382;53.160;7.026;2023-08-06T07:45:58;18.10;99.90
52471;DHT22;38382;53.160;7.026;2023-08-06T07:48:24;18.20;99.90
52471;DHT22;38382;53.160;7.026;2023-08-06T07:50:54;18.20;99.90
52471;DHT22;38382;53.160;7.026;2023-08-06T07:53:24;18.30;99.90
52471;DHT22;38382;53.160;7.026;2023-08-06T07:55:53;18.50;99.90
52471;DHT22;38382;53.160;7.026;2023-08-06T07:58:26;18.70;99.90
52471;DHT22;38382;53.160;7.026;2023-08-06T08:00:51;18.80;99.90
52471;DHT22;38382;53.160;7.026;2023-08-06T08:03:17;18.80;99.90
52471;DHT22;38382;53.160;7.026;2023-08-06T08:05:43;19.00;99.90
52471;DHT22;38382;53.160;7.026;2023-08-06T08:08:09;19.10;99.90
52471;DHT22;38382;53.160;7.026;2023-08-06T08:10:36;19.10;99.90
52471;DHT22;38382;53.160;7.026;2023-08-06T08:13:03;19.10;99.90
52471;DHT22;38382;53.160;7.026;2023-08-06T08:15:30;19.20;99.90
52471;DHT22;38382;53.160;7.026;2023-08-06T08:17:56;19.40;99.90
52471;DHT22;38382;53.160;7.026;2023-08-06T08:20:22;19.50;99.90
52471;DHT22;38382;53.160;7.026;2023-08-06T08:22:48;19.60;99.90
52471;DHT22;38382;53.160;7.026;2023-08-06T08:25:15;19.70;99.90
52471;DHT22;38382;53.160;7.026;2023-08-06T08:27:41;19.80;99.90
52471;DHT22;38382;53.160;7.026;2023-08-06T08:30:07;19.90;99.90
52471;DHT22;38382;53.160;7.026;2023-08-06T08:32:33;19.90;99.90
52471;DHT22;38382;53.160;7.026;2023-08-06T08:34:58;19.90;99.90
52471;DHT22;38382;53.160;7.026;2023-08-06T08:37:24;19.80;99.90
52471;DHT22;38382;53.160;7.026;2023-08-06T08:39:50;19.90;99.90
52471;DHT22;38382;53.160;7.026;2023-08-06T08:42:16;20.00;99.90
52471;DHT22;38382;53.160;7.026;2023-08-06T08:44:42;20.20;99.90
52471;DHT22;38382;53.160;7.026;2023-08-06T08:47:10;20.30;99.90
52471;DHT22;38382;53.160;7.026;2023-08-06T08:49:36;20.40;99.90
52471;DHT22;38382;53.160;7.026;2023-08-06T08:52:04;20.70;99.90
52471;DHT22;38382;53.160;7.026;2023-08-06T08:54:35;21.00;99.90
52471;DHT22;38382;53.160;7.026;2023-08-06T08:57:02;21.30;99.90
52471;DHT22;38382;53.160;7.026;2023-08-06T08:59:27;21.60;99.90
52471;DHT22;38382;53.160;7.026;2023-08-06T09:01:53;21.80;99.90
52471;DHT22;38382;53.160;7.026;2023-08-06T09:04:20;22.00;99.90
52471;DHT22;38382;53.160;7.026;2023-08-06T09:06:50;22.20;99.90
52471;DHT22;38382;53.160;7.026;2023-08-06T09:09:22;22.40;99.90
52471;DHT22;38382;53.160;7.026;2023-08-06T09:11:51;22.60;99.90
52471;DHT22;38382;53.160;7.026;2023-08-06T09:14:17;22.80;99.90
52471;DHT22;38382;53.160;7.026;2023-08-06T09:16:43;23.00;99.90
52471;DHT22;38382;53.160;7.026;2023-08-06T09:19:10;23.20;99.90
52471;DHT22;38382;53.160;7.026;2023-08-06T09:21:41;23.30;99.90
52471;DHT22;38382;53.160;7.026;2023-08-06T09:24:11;23.50;99.90
52471;DHT22;38382;53.160;7.026;2023-08-06T09:26:41;23.70;99.90
52471;DHT22;38382;53.160;7.026;2023-08-06T09:29:08;23.80;99.90
52471;DHT22;38382;53.160;7.026;2023-08-06T09:34:11;23.90;99.90
52471;DHT22;38382;53.160;7.026;2023-08-06T09:36:42;24.00;99.90
52471;DHT22;38382;53.160;7.026;2023-08-06T09:39:31;24.00;99.90
52471;DHT22;38382;53.160;7.026;2023-08-06T09:41:58;24.00;99.90
52471;DHT22;38382;53.160;7.026;2023-08-06T09:44:27;24.10;99.90
52471;DHT22;38382;53.160;7.026;2023-08-06T09:46:54;24.20;99.90
52471;DHT22;38382;53.160;7.026;2023-08-06T09:49:28;24.20;99.90
52471;DHT22;38382;53.160;7.026;2023-08-06T09:51:54;24.30;99.90
52471;DHT22;38382;53.160;7.026;2023-08-06T09:54:24;24.40;99.90
52471;DHT22;38382;53.160;7.026;2023-08-06T09:56:52;24.50;99.90
52471;DHT22;38382;53.160;7.026;2023-08-06T09:59:18;24.50;99.90
52471;DHT22;38382;53.160;7.026;2023-08-06T10:01:45;24.60;99.90
52471;DHT22;38382;53.160;7.026;2023-08-06T10:04:13;24.70;99.90
52471;DHT22;38382;53.160;7.026;2023-08-06T10:06:42;24.80;99.90
52471;DHT22;38382;53.160;7.026;2023-08-06T10:09:08;24.80;99.90
52471;DHT22;38382;53.160;7.026;2023-08-06T10:11:37;24.90;99.90
52471;DHT22;38382;53.160;7.026;2023-08-06T10:14:16;24.90;99.90
52471;DHT22;38382;53.160;7.026;2023-08-06T10:16:44;25.10;99.90
52471;DHT22;38382;53.160;7.026;2023-08-06T10:19:11;25.30;99.90
52471;DHT22;38382;53.160;7.026;2023-08-06T10:21:40;25.30;99.90
52471;DHT22;38382;53.160;7.026;2023-08-06T10:24:14;25.30;99.90
52471;DHT22;38382;53.160;7.026;2023-08-06T10:26:40;25.20;99.90
52471;DHT22;38382;53.160;7.026;2023-08-06T10:29:37;25.20;99.90
52471;DHT22;38382;53.160;7.026;2023-08-06T10:32:03;25.20;99.90
52471;DHT22;38382;53.160;7.026;2023-08-06T10:37:44;25.10;99.90
52471;DHT22;38382;53.160;7.026;2023-08-06T10:40:10;25.40;99.90
52471;DHT22;38382;53.160;7.026;2023-08-06T10:42:36;25.70;99.90
52471;DHT22;38382;53.160;7.026;2023-08-06T10:45:13;25.80;99.90
52471;DHT22;38382;53.160;7.026;2023-08-06T10:47:40;25.90;99.90
52471;DHT22;38382;53.160;7.026;2023-08-06T10:50:08;26.00;99.90
52471;DHT22;38382;53.160;7.026;2023-08-06T10:52:36;26.20;99.90
52471;DHT22;38382;53.160;7.026;2023-08-06T10:55:02;26.30;99.90
52471;DHT22;38382;53.160;7.026;2023-08-06T10:57:28;26.40;99.90
52471;DHT22;38382;53.160;7.026;2023-08-06T10:59:54;26.60;99.90
52471;DHT22;38382;53.160;7.026;2023-08-06T11:02:19;26.60;99.90
52471;DHT22;38382;53.160;7.026;2023-08-06T11:04:45;26.70;99.90
52471;DHT22;38382;53.160;7.026;2023-08-06T11:07:11;26.90;99.90
52471;DHT22;38382;53.160;7.026;2023-08-06T11:09:38;27.10;99.90
52471;DHT22;38382;53.160;7.026;2023-08-06T11:12:09;27.30;99.90
52471;DHT22;38382;53.160;7.026;2023-08-06T11:14:35;27.40;99.90
52471;DHT22;38382;53.160;7.026;2023-08-06T11:17:01;27.60;99.90
52471;DHT22;38382;53.160;7.026;2023-08-06T11:19:27;27.40;99.90
52471;DHT22;38382;53.160;7.026;2023-08-06T11:21:54;27.20;99.90
52471;DHT22;38382;53.160;7.026;2023-08-06T11:24:20;27.00;99.90
52471;DHT22;38382;53.160;7.026;2023-08-06T11:26:46;26.90;99.90
52471;DHT22;38382;53.160;7.026;2023-08-06T11:29:11;26.80;99.90
52471;DHT22;38382;53.160;7.026;2023-08-06T11:31:37;26.50;99.90
52471;DHT22;38382;53.160;7.026;2023-08-06T11:34:03;26.50;99.90
52471;DHT22;38382;53.160;7.026;2023-08-06T11:36:33;26.70;99.90
52471;DHT22;38382;53.160;7.026;2023-08-06T11:38:59;27.00;99.90
52471;DHT22;38382;53.160;7.026;2023-08-06T11:41:30;27.30;99.90
52471;DHT22;38382;53.160;7.026;2023-08-06T11:43:57;27.40;99.90
52471;DHT22;38382;53.160;7.026;2023-08-06T11:46:22;27.60;99.90
52471;DHT22;38382;53.160;7.026;2023-08-06T11:48:56;27.80;99.90
52471;DHT22;38382;53.160;7.026;2023-08-06T11:51:23;28.00;99.90
52471;DHT22;38382;53.160;7.026;2023-08-06T11:53:49;27.90;99.90
52471;DHT22;38382;53.160;7.026;2023-08-06T11:56:16;27.90;99.10
52471;DHT22;38382;53.160;7.026;2023-08-06T11:58:42;27.90;99.90
52471;DHT22;38382;53.160;7.026;2023-08-06T12:01:08;28.00;99.90
52471;DHT22;38382;53.160;7.026;2023-08-06T12:03:42;28.00;99.90
52471;DHT22;38382;53.160;7.026;2023-08-06T12:06:07;28.10;99.90
52471;DHT22;38382;53.160;7.026;2023-08-06T12:08:33;28.10;99.90
52471;DHT22;38382;53.160;7.026;2023-08-06T12:10:59;28.30;99.40
52471;DHT22;38382;53.160;7.026;2023-08-06T12:13:25;28.40;99.60
52471;DHT22;38382;53.160;7.026;2023-08-06T12:15:51;28.60;98.40
52471;DHT22;38382;53.160;7.026;2023-08-06T12:18:19;28.70;99.10
52471;DHT22;38382;53.160;7.026;2023-08-06T12:20:45;28.70;99.00
52471;DHT22;38382;53.160;7.026;2023-08-06T12:23:10;28.50;99.40
52471;DHT22;38382;53.160;7.026;2023-08-06T12:25:41;28.60;99.90
52471;DHT22;38382;53.160;7.026;2023-08-06T12:28:07;28.40;99.60
52471;DHT22;38382;53.160;7.026;2023-08-06T12:30:34;28.60;99.70
52471;DHT22;38382;53.160;7.026;2023-08-06T12:32:59;28.80;99.10
52471;DHT22;38382;53.160;7.026;2023-08-06T12:35:25;29.00;99.90
52471;DHT22;38382;53.160;7.026;2023-08-06T12:37:52;28.70;99.50
52471;DHT22;38382;53.160;7.026;2023-08-06T12:40:20;28.30;99.30
52471;DHT22;38382;53.160;7.026;2023-08-06T12:42:46;27.50;99.90
52471;DHT22;38382;53.160;7.026;2023-08-06T12:45:12;27.00;99.70
52471;DHT22;38382;53.160;7.026;2023-08-06T12:47:37;26.40;99.90
52471;DHT22;38382;53.160;7.026;2023-08-06T12:50:03;25.80;99.90
52471;DHT22;38382;53.160;7.026;2023-08-06T12:52:29;25.40;99.90
52471;DHT22;38382;53.160;7.026;2023-08-06T12:54:55;25.10;99.90
52471;DHT22;38382;53.160;7.026;2023-08-06T12:57:21;24.80;99.90
52471;DHT22;38382;53.160;7.026;2023-08-06T12:59:46;24.50;99.90
52471;DHT22;38382;53.160;7.026;2023-08-06T13:02:13;24.30;99.90
52471;DHT22;38382;53.160;7.026;2023-08-06T13:04:39;24.10;99.90
52471;DHT22;38382;53.160;7.026;2023-08-06T13:07:05;24.00;99.90
52471;DHT22;38382;53.160;7.026;2023-08-06T13:09:32;23.80;99.90
52471;DHT22;38382;53.160;7.026;2023-08-06T13:11:58;23.80;99.90
52471;DHT22;38382;53.160;7.026;2023-08-06T13:14:25;23.80;99.90
52471;DHT22;38382;53.160;7.026;2023-08-06T13:16:51;23.90;99.90
52471;DHT22;38382;53.160;7.026;2023-08-06T13:19:17;24.50;99.90
52471;DHT22;38382;53.160;7.026;2023-08-06T13:24:11;25.50;99.90
52471;DHT22;38382;53.160;7.026;2023-08-06T13:26:37;26.30;99.90
52471;DHT22;38382;53.160;7.026;2023-08-06T13:29:02;26.30;99.90
52471;DHT22;38382;53.160;7.026;2023-08-06T13:31:28;26.10;99.90
52471;DHT22;38382;53.160;7.026;2023-08-06T13:33:55;25.70;99.90
52471;DHT22;38382;53.160;7.026;2023-08-06T13:36:24;25.30;99.90
52471;DHT22;38382;53.160;7.026;2023-08-06T13:38:50;25.00;99.90
52471;DHT22;38382;53.160;7.026;2023-08-06T13:41:16;24.70;99.90
52471;DHT22;38382;53.160;7.026;2023-08-06T13:43:42;24.60;99.90
52471;DHT22;38382;53.160;7.026;2023-08-06T13:46:09;24.90;99.90
52471;DHT22;38382;53.160;7.026;2023-08-06T13:48:39;25.30;99.90
52471;DHT22;38382;53.160;7.026;2023-08-06T13:51:05;26.20;99.90
52471;DHT22;38382;53.160;7.026;2023-08-06T13:53:30;26.60;99.90
52471;DHT22;38382;53.160;7.026;2023-08-06T13:55:56;26.90;99.90
52471;DHT22;38382;53.160;7.026;2023-08-06T13:58:25;27.40;99.90
52471;DHT22;38382;53.160;7.026;2023-08-06T14:00:52;28.00;99.90
52471;DHT22;38382;53.160;7.026;2023-08-06T14:03:20;28.50;99.90
52471;DHT22;38382;53.160;7.026;2023-08-06T14:05:46;28.50;98.40
52471;DHT22;38382;53.160;7.026;2023-08-06T14:08:11;28.90;96.10
52471;DHT22;38382;53.160;7.026;2023-08-06T14:10:37;29.00;97.40
52471;DHT22;38382;53.160;7.026;2023-08-06T14:13:03;28.70;95.20
52471;DHT22;38382;53.160;7.026;2023-08-06T14:15:28;28.80;94.30
52471;DHT22;38382;53.160;7.026;2023-08-06T14:17:54;29.10;96.90
52471;DHT22;38382;53.160;7.026;2023-08-06T14:20:20;29.10;95.40
52471;DHT22;38382;53.160;7.026;2023-08-06T14:22:45;29.30;95.30
52471;DHT22;38382;53.160;7.026;2023-08-06T14:25:11;29.30;94.10
52471;DHT22;38382;53.160;7.026;2023-08-06T14:27:37;29.30;93.20
52471;DHT22;38382;53.160;7.026;2023-08-06T14:30:06;29.40;92.70
52471;DHT22;38382;53.160;7.026;2023-08-06T14:32:32;29.50;92.70
52471;DHT22;38382;53.160;7.026;2023-08-06T14:34:58;29.60;91.70
52471;DHT22;38382;53.160;7.026;2023-08-06T14:37:24;29.80;90.30
52471;DHT22;38382;53.160;7.026;2023-08-06T14:39:51;29.80;89.50
52471;DHT22;38382;53.160;7.026;2023-08-06T14:42:17;30.10;89.00
52471;DHT22;38382;53.160;7.026;2023-08-06T14:44:43;30.10;86.40
52471;DHT22;38382;53.160;7.026;2023-08-06T14:47:09;30.20;84.00
52471;DHT22;38382;53.160;7.026;2023-08-06T14:49:35;30.30;83.50
52471;DHT22;38382;53.160;7.026;2023-08-06T14:52:00;30.60;83.50
52471;DHT22;38382;53.160;7.026;2023-08-06T14:54:27;30.40;78.80
52471;DHT22;38382;53.160;7.026;2023-08-06T14:56:53;30.50;77.20
52471;DHT22;38382;53.160;7.026;2023-08-06T14:59:19;30.60;75.80
52471;DHT22;38382;53.160;7.026;2023-08-06T15:01:44;30.30;75.30
52471;DHT22;38382;53.160;7.026;2023-08-06T15:04:10;30.10;75.70
52471;DHT22;38382;53.160;7.026;2023-08-06T15:06:36;29.90;76.30
52471;DHT22;38382;53.160;7.026;2023-08-06T15:09:02;30.00;75.80
52471;DHT22;38382;53.160;7.026;2023-08-06T15:11:27;30.20;76.80
52471;DHT22;38382;53.160;7.026;2023-08-06T15:13:53;30.40;75.30
52471;DHT22;38382;53.160;7.026;2023-08-06T15:16:19;30.80;78.10
52471;DHT22;38382;53.160;7.026;2023-08-06T15:18:44;31.30;75.40
52471;DHT22;38382;53.160;7.026;2023-08-06T15:21:10;31.30;76.40
52471;DHT22;38382;53.160;7.026;2023-08-06T15:23:36;31.30;77.50
52471;DHT22;38382;53.160;7.026;2023-08-06T15:26:02;31.60;73.70
52471;DHT22;38382;53.160;7.026;2023-08-06T15:28:29;31.40;72.60
52471;DHT22;38382;53.160;7.026;2023-08-06T15:30:55;31.40;71.00
52471;DHT22;38382;53.160;7.026;2023-08-06T15:33:21;31.40;72.80
52471;DHT22;38382;53.160;7.026;2023-08-06T15:35:47;31.80;72.80
52471;DHT22;38382;53.160;7.026;2023-08-06T15:38:13;32.30;72.00
52471;DHT22;38382;53.160;7.026;2023-08-06T15:40:39;32.60;70.40